Time;durP1;ratioP1;P1;durP2;ratioP2;P2;SDS_P1;SDS_P2;PMS_P1;PMS_P2;Temp;Humidity;BMP_temperature;BMP_pressure;BME280_temperature;BME280_humidity;BME280_pressure;Samples;Min_cycle;Max_cycle;Signal;HPM_P1;HPM_P2
2023/05/06 00:02:09;;;;;;;5.90;1.90;;;;;;;9.73;57.98;101166.19;104644;1260;67137;-51
2023/05/06 00:04:37;;;;;;;2.20;0.40;;;;;;;9.68;57.94;101160.02;104620;1257;66095;-53
2023/05/06 00:07:04;;;;;;;6.00;1.90;;;;;;;9.61;58.30;101161.63;107628;1256;66021;-52
2023/05/06 00:09:31;;;;;;;4.90;1.90;;;;;;;9.63;58.54;101165.58;104691;1256;60585;-51
2023/05/06 00:11:58;;;;;;;5.30;1.90;;;;;;;9.67;58.55;101163.71;104649;1257;61385;-51
2023/05/06 00:14:25;;;;;;;5.60;2.60;;;;;;;9.70;58.52;101166.55;104647;1261;67181;-52
2023/05/06 00:16:52;;;;;;;7.80;2.10;;;;;;;9.68;58.57;101168.56;104755;1261;64992;-52
2023/05/06 00:19:19;;;;;;;6.30;2.00;;;;;;;9.67;58.69;101169.16;104670;1257;67066;-52
2023/05/06 00:21:46;;;;;;;6.00;2.30;;;;;;;9.66;58.63;101172.02;104711;1257;60460;-52
2023/05/06 00:24:13;;;;;;;6.50;1.50;;;;;;;9.63;58.68;101176.92;104696;1259;59260;-52
2023/05/06 00:26:40;;;;;;;5.80;2.20;;;;;;;9.60;58.70;101179.09;104790;1256;67238;-55
2023/05/06 00:29:07;;;;;;;4.60;1.90;;;;;;;9.56;58.88;101179.52;104611;1260;62724;-51
2023/05/06 00:31:34;;;;;;;5.20;2.00;;;;;;;9.55;59.10;101180.12;104706;1257;66154;-52
2023/05/06 00:34:01;;;;;;;5.20;2.00;;;;;;;9.59;58.91;101185.77;104556;1258;60552;-51
2023/05/06 00:36:28;;;;;;;2.60;0.90;;;;;;;9.62;58.65;101191.35;104698;1257;60533;-51
2023/05/06 00:38:55;;;;;;;4.20;1.80;;;;;;;9.63;58.68;101191.70;106252;1256;67494;-51
2023/05/06 00:41:22;;;;;;;5.20;1.90;;;;;;;9.63;58.77;101196.73;108049;1257;63419;-51
2023/05/06 00:43:49;;;;;;;5.20;2.30;;;;;;;9.61;58.41;101197.58;104652;1257;65300;-53
2023/05/06 00:46:16;;;;;;;4.70;1.90;;;;;;;9.56;58.48;101198.41;107660;1255;60561;-52
2023/05/06 00:48:44;;;;;;;5.40;2.30;;;;;;;9.50;58.50;101201.61;105710;1257;60505;-51
2023/05/06 00:51:11;;;;;;;3.60;1.00;;;;;;;9.42;58.57;101204.02;106726;1256;67232;-52
2023/05/06 00:53:38;;;;;;;4.80;2.10;;;;;;;9.34;58.87;101202.95;104632;1261;63577;-51
2023/05/06 00:56:05;;;;;;;3.60;1.30;;;;;;;9.31;59.30;101205.35;104694;1259;66036;-51
2023/05/06 00:58:33;;;;;;;5.60;1.90;;;;;;;9.38;59.40;101204.62;104452;1256;61441;-51
2023/05/06 01:01:00;;;;;;;10.60;2.40;;;;;;;9.42;59.39;101206.09;107081;1256;59111;-50
2023/05/06 01:03:28;;;;;;;8.30;2.20;;;;;;;9.42;58.80;101205.58;106071;1256;67271;-51
2023/05/06 01:06:01;;;;;;;6.60;2.00;;;;;;;9.40;58.96;101207.12;104811;1257;63641;-52
2023/05/06 01:08:41;;;;;;;5.00;2.30;;;;;;;9.39;59.21;101205.23;104678;1257;66525;-53
2023/05/06 01:11:12;;;;;;;6.20;1.90;;;;;;;9.35;58.99;101206.38;107620;1256;62983;-52
2023/05/06 01:13:50;;;;;;;6.40;2.40;;;;;;;9.28;59.08;101208.04;106656;1256;60516;-52
2023/05/06 01:16:18;;;;;;;3.90;0.90;;;;;;;9.20;59.22;101212.37;108630;1257;67532;-52
2023/05/06 01:18:45;;;;;;;6.30;1.90;;;;;;;9.16;59.39;101214.34;105649;1257;63885;-52
2023/05/06 01:21:13;;;;;;;5.60;1.90;;;;;;;9.20;59.53;101217.92;104714;1257;66224;-51
2023/05/06 01:23:56;;;;;;;4.20;1.80;;;;;;;9.24;59.81;101216.50;104642;1256;60493;-51
2023/05/06 01:26:24;;;;;;;5.00;2.20;;;;;;;9.24;59.96;101210.91;104664;1261;60530;-52
2023/05/06 01:28:51;;;;;;;5.10;1.80;;;;;;;9.23;60.00;101212.34;104804;1259;65980;-52
2023/05/06 01:31:21;;;;;;;4.30;1.90;;;;;;;9.23;60.12;101214.98;107264;1257;63452;-53
2023/05/06 01:34:24;;;;;;;4.10;1.90;;;;;;;9.21;60.47;101215.79;104962;1257;68247;-52
2023/05/06 01:37:03;;;;;;;4.50;1.80;;;;;;;9.22;60.53;101215.54;104889;1257;60487;-51
2023/05/06 01:39:30;;;;;;;6.50;1.80;;;;;;;9.24;60.62;101213.34;105122;1261;60374;-51
2023/05/06 01:41:58;;;;;;;5.90;1.80;;;;;;;9.24;60.75;101214.88;105079;1260;67155;-52
2023/05/06 01:44:26;;;;;;;5.70;1.90;;;;;;;9.25;60.49;101216.78;106545;1257;63753;-53
2023/05/06 01:46:53;;;;;;;5.10;2.30;;;;;;;9.22;60.17;101215.05;108775;1257;65306;-52
2023/05/06 01:49:20;;;;;;;5.30;2.00;;;;;;;9.18;60.39;101219.36;105771;1262;60569;-52
2023/05/06 01:51:51;;;;;;;5.40;2.00;;;;;;;9.11;60.57;101224.11;108643;1259;58800;-52
2023/05/06 01:54:18;;;;;;;3.70;1.00;;;;;;;9.06;60.72;101225.77;105940;1258;67381;-53
2023/05/06 01:56:45;;;;;;;4.60;1.80;;;;;;;9.10;60.96;101235.55;105243;1257;63830;-52
2023/05/06 01:59:13;;;;;;;4.70;1.70;;;;;;;9.13;60.62;101233.46;105049;1258;64757;-52
2023/05/06 02:01:40;;;;;;;2.10;0.60;;;;;;;9.09;60.65;101235.95;105107;1257;61676;-52
2023/05/06 02:04:07;;;;;;;5.40;2.20;;;;;;;9.06;61.01;101241.20;107842;1256;59388;-53
2023/05/06 02:06:35;;;;;;;4.30;1.70;;;;;;;9.03;61.13;101241.58;104961;1257;66262;-53
2023/05/06 02:09:02;;;;;;;4.10;1.70;;;;;;;8.97;61.06;101240.54;105071;1262;62559;-54
2023/05/06 02:11:30;;;;;;;5.10;2.00;;;;;;;8.90;61.01;101246.53;105080;1261;66329;-52
2023/05/06 02:14:02;;;;;;;4.70;1.00;;;;;;;8.87;61.27;101255.99;105088;1257;60559;-52
2023/05/06 02:16:31;;;;;;;5.90;1.70;;;;;;;8.84;60.99;101252.85;105114;1262;61101;-52
2023/05/06 02:18:58;;;;;;;5.40;1.90;;;;;;;8.76;61.20;101255.75;105571;1261;66621;-52
2023/05/06 02:21:26;;;;;;;5.20;1.90;;;;;;;8.67;61.27;101262.90;104954;1262;62770;-54
2023/05/06 02:23:53;;;;;;;5.40;1.10;;;;;;;8.62;61.46;101266.52;105145;1257;65127;-52
2023/05/06 02:26:20;;;;;;;5.70;1.90;;;;;;;8.63;61.60;101267.55;105139;1259;60479;-51
2023/05/06 02:28:47;;;;;;;3.60;1.70;;;;;;;8.64;61.53;101266.23;106517;1256;59509;-52
2023/05/06 02:31:14;;;;;;;4.50;1.70;;;;;;;8.63;61.73;101263.30;105168;1257;66372;-52
2023/05/06 02:33:43;;;;;;;4.10;1.60;;;;;;;8.63;61.96;101266.30;106100;1257;63404;-52
2023/05/06 02:36:10;;;;;;;3.60;0.80;;;;;;;8.62;61.94;101266.31;105035;1257;66308;-52
2023/05/06 02:38:37;;;;;;;4.40;1.70;;;;;;;8.60;61.92;101268.20;108522;1257;58354;-52
2023/05/06 02:41:04;;;;;;;4.50;1.50;;;;;;;8.60;61.78;101265.78;105169;1255;60716;-52
2023/05/06 02:43:31;;;;;;;2.40;0.80;;;;;;;8.61;61.65;101265.55;105177;1257;67293;-52
2023/05/06 02:45:57;;;;;;;3.40;1.50;;;;;;;8.57;61.47;101261.02;106218;1257;65863;-52
2023/05/06 02:48:24;;;;;;;4.30;1.70;;;;;;;8.53;61.27;101267.54;105744;1257;66156;-51
2023/05/06 02:50:51;;;;;;;4.60;1.40;;;;;;;8.48;61.32;101273.98;105109;1257;60629;-53
2023/05/06 02:53:18;;;;;;;6.90;1.70;;;;;;;8.43;61.50;101280.55;104934;1259;60390;-51
2023/05/06 02:55:45;;;;;;;1.90;0.50;;;;;;;8.44;61.52;101281.58;104628;1257;67368;-50
2023/05/06 02:58:13;;;;;;;4.70;1.60;;;;;;;8.45;61.51;101277.98;104963;1262;64558;-50
2023/05/06 03:00:40;;;;;;;2.60;1.40;;;;;;;8.42;61.32;101287.06;104714;1259;64875;-50
2023/05/06 03:03:07;;;;;;;4.40;1.30;;;;;;;8.36;61.34;101291.70;104763;1257;60462;-50
2023/05/06 03:05:34;;;;;;;5.00;1.90;;;;;;;8.35;61.18;101291.82;108554;1255;60817;-52
2023/05/06 03:08:01;;;;;;;3.00;0.90;;;;;;;8.32;60.78;101295.45;105928;1257;65911;-52
2023/05/06 03:10:29;;;;;;;3.50;1.40;;;;;;;8.30;61.09;101298.20;105260;1257;64093;-52
2023/05/06 03:12:57;;;;;;;4.60;1.50;;;;;;;8.29;61.30;101301.04;104733;1257;66241;-51
2023/05/06 03:15:24;;;;;;;6.20;1.60;;;;;;;8.34;61.04;101301.45;104711;1257;60457;-53
2023/05/06 03:17:52;;;;;;;5.00;1.80;;;;;;;8.42;60.44;101302.98;104502;1262;60470;-52
2023/05/06 03:20:20;;;;;;;2.30;0.60;;;;;;;8.46;60.01;101309.44;105435;1257;67831;-50
2023/05/06 03:22:50;;;;;;;3.70;1.40;;;;;;;8.46;60.21;101310.63;106532;1257;62586;-51
2023/05/06 03:25:17;;;;;;;2.30;0.50;;;;;;;8.43;59.56;101309.88;104681;1262;65127;-50
2023/05/06 03:27:45;;;;;;;4.90;1.70;;;;;;;8.38;59.79;101322.77;105556;1257;60382;-52
2023/05/06 03:30:16;;;;;;;4.10;1.40;;;;;;;8.35;60.01;101322.04;105542;1257;60475;-51
2023/05/06 03:32:43;;;;;;;1.80;0.50;;;;;;;8.32;59.46;101320.96;104619;1257;67311;-51
2023/05/06 03:35:12;;;;;;;3.80;1.30;;;;;;;8.29;59.18;101318.36;108782;1255;66839;-53
2023/05/06 03:37:40;;;;;;;3.40;1.40;;;;;;;8.32;58.82;101321.67;105048;1263;66595;-51
2023/05/06 03:40:08;;;;;;;5.30;1.40;;;;;;;8.33;58.48;101322.50;104724;1257;60445;-52
2023/05/06 03:42:35;;;;;;;4.60;1.50;;;;;;;8.32;58.58;101326.06;106872;1259;61706;-51
2023/05/06 03:45:03;;;;;;;1.20;0.30;;;;;;;8.30;58.40;101324.97;104486;1258;67299;-52
2023/05/06 03:47:31;;;;;;;4.60;1.70;;;;;;;8.25;58.01;101330.45;105162;1262;62522;-50
2023/05/06 03:49:59;;;;;;;3.80;0.80;;;;;;;8.23;58.04;101341.27;105392;1257;66187;-52
2023/05/06 03:52:26;;;;;;;5.90;1.60;;;;;;;8.22;57.99;101353.02;105200;1255;61184;-50
2023/05/06 03:54:53;;;;;;;3.90;1.40;;;;;;;8.22;57.81;101353.52;104877;1264;60465;-50
2023/05/06 03:57:20;;;;;;;4.30;2.00;;;;;;;8.28;57.41;101355.29;105113;1260;66766;-51
2023/05/06 03:59:47;;;;;;;5.50;1.60;;;;;;;8.36;57.13;101353.10;108769;1257;63905;-52
2023/05/06 04:02:15;;;;;;;2.10;0.80;;;;;;;8.41;56.47;101361.78;105716;1262;65995;-52
2023/05/06 04:04:43;;;;;;;5.40;1.60;;;;;;;8.46;56.48;101360.42;105642;1262;60447;-52
2023/05/06 04:07:10;;;;;;;4.70;1.60;;;;;;;8.53;55.88;101359.02;108822;1255;59265;-51
2023/05/06 04:09:37;;;;;;;4.50;1.80;;;;;;;8.56;55.75;101356.95;106013;1262;67215;-51
2023/05/06 04:12:06;;;;;;;8.20;2.20;;;;;;;8.54;55.54;101355.31;105148;1262;63739;-52
2023/05/06 04:14:33;;;;;;;3.20;0.70;;;;;;;8.51;55.50;101358.61;105109;1257;66490;-50
2023/05/06 04:17:01;;;;;;;4.70;1.80;;;;;;;8.48;55.77;101361.38;107124;1256;60660;-51
2023/05/06 04:19:28;;;;;;;6.40;2.30;;;;;;;8.49;55.93;101366.60;105215;1263;60338;-50
2023/05/06 04:21:55;;;;;;;2.10;0.60;;;;;;;8.47;55.82;101357.44;105112;1258;74835;-51
2023/05/06 04:24:22;;;;;;;5.90;1.90;;;;;;;8.48;55.36;101359.11;105159;1262;62801;-54
2023/05/06 04:26:49;;;;;;;4.40;1.70;;;;;;;8.52;55.17;101368.00;105032;1257;66517;-52
2023/05/06 04:29:18;;;;;;;3.40;1.00;;;;;;;8.53;54.99;101369.72;105823;1261;60470;-51
2023/05/06 04:31:54;;;;;;;3.40;1.40;;;;;;;8.53;54.66;101365.67;104929;1262;60463;-52
2023/05/06 04:34:23;;;;;;;9.60;1.90;;;;;;;8.54;54.82;101375.05;108782;1255;67236;-52
2023/05/06 04:36:53;;;;;;;2.70;0.70;;;;;;;8.57;54.56;101383.48;107199;1261;63462;-52
2023/05/06 04:39:38;;;;;;;4.50;1.80;;;;;;;8.60;54.32;101388.03;105369;1256;66184;-52
2023/05/06 04:42:05;;;;;;;2.50;1.00;;;;;;;8.62;54.18;101385.09;106363;1259;60561;-52
2023/05/06 04:44:37;;;;;;;4.20;1.70;;;;;;;8.63;54.01;101385.05;105015;1262;60394;-52
2023/05/06 04:47:07;;;;;;;5.50;1.70;;;;;;;8.65;54.23;101389.66;105421;1256;75274;-52
2023/05/06 04:49:34;;;;;;;3.70;0.90;;;;;;;8.67;53.98;101392.86;105216;1257;63521;-51
2023/05/06 04:52:02;;;;;;;6.30;1.80;;;;;;;8.70;53.72;101390.08;105076;1262;65151;-52
2023/05/06 04:54:29;;;;;;;6.10;2.20;;;;;;;8.74;53.48;101388.80;104978;1255;60780;-51
2023/05/06 04:56:57;;;;;;;3.20;1.00;;;;;;;8.79;53.43;101387.88;105140;1257;60528;-53
2023/05/06 04:59:25;;;;;;;5.40;2.00;;;;;;;8.84;53.50;101393.48;105747;1258;67516;-52
2023/05/06 05:01:52;;;;;;;5.20;2.10;;;;;;;8.91;52.99;101395.20;105901;1257;64460;-53
2023/05/06 05:04:19;;;;;;;5.60;2.10;;;;;;;8.97;52.50;101394.69;105174;1261;66168;-53
2023/05/06 05:06:46;;;;;;;2.10;0.60;;;;;;;9.01;52.89;101394.27;105179;1263;61191;-51
2023/05/06 05:09:14;;;;;;;5.00;1.80;;;;;;;9.06;52.82;101389.27;105292;1260;60404;-51
2023/05/06 05:11:42;;;;;;;5.30;1.80;;;;;;;9.10;51.38;101389.58;105278;1259;67330;-52
2023/05/06 05:14:09;;;;;;;5.90;1.90;;;;;;;9.12;51.41;101389.64;105100;1254;63619;-53
2023/05/06 05:16:36;;;;;;;5.50;2.00;;;;;;;9.14;50.58;101389.16;106831;1254;66284;-51
2023/05/06 05:19:05;;;;;;;8.10;2.00;;;;;;;9.16;49.86;101388.40;104716;1254;60409;-50
2023/05/06 05:21:35;;;;;;;6.50;2.10;;;;;;;9.17;49.86;101393.89;106071;1254;60794;-52
2023/05/06 05:24:03;;;;;;;4.50;1.70;;;;;;;9.23;49.92;101393.20;105445;1256;66226;-51
2023/05/06 05:26:30;;;;;;;4.50;2.00;;;;;;;9.30;49.43;101393.67;107968;1259;62797;-52
2023/05/06 05:28:57;;;;;;;2.60;0.60;;;;;;;9.38;48.90;101390.38;105442;1254;66022;-52
2023/05/06 05:31:24;;;;;;;6.20;1.60;;;;;;;9.47;48.80;101389.15;104816;1255;60848;-51
2023/05/06 05:33:51;;;;;;;5.70;1.60;;;;;;;9.57;48.00;101395.41;104788;1254;60585;-53
2023/05/06 05:36:20;;;;;;;7.30;1.70;;;;;;;9.65;48.16;101390.56;104762;1259;68137;-51
2023/05/06 05:38:48;;;;;;;4.40;1.60;;;;;;;9.71;47.32;101386.16;107985;1262;64057;-53
2023/05/06 05:41:16;;;;;;;5.10;2.00;;;;;;;9.74;46.04;101386.16;104840;1254;66063;-52
2023/05/06 05:43:43;;;;;;;4.70;1.70;;;;;;;9.76;46.86;101386.73;105113;1254;60661;-52
2023/05/06 05:46:10;;;;;;;5.20;1.60;;;;;;;9.81;47.66;101387.11;107723;1256;60678;-51
2023/05/06 05:48:38;;;;;;;5.30;2.00;;;;;;;9.89;47.05;101386.80;105980;1259;66911;-51
2023/05/06 05:51:06;;;;;;;4.00;1.60;;;;;;;9.97;46.16;101387.40;104766;1254;63797;-52
2023/05/06 05:53:33;;;;;;;5.70;2.00;;;;;;;10.01;45.39;101387.52;104739;1258;66299;-52
2023/05/06 05:56:01;;;;;;;4.50;1.70;;;;;;;10.06;45.72;101387.35;107042;1258;60584;-52
2023/05/06 05:58:28;;;;;;;4.20;1.50;;;;;;;10.14;45.11;101387.59;106092;1259;61129;-52
2023/05/06 06:00:57;;;;;;;4.50;1.70;;;;;;;10.20;43.91;101392.27;108989;1254;67546;-52
2023/05/06 06:03:24;;;;;;;5.20;1.40;;;;;;;10.23;41.92;101391.58;104919;1257;63954;-54
2023/05/06 06:05:53;;;;;;;3.50;1.40;;;;;;;10.21;41.68;101391.35;108127;1257;64965;-52
2023/05/06 06:08:22;;;;;;;3.80;1.70;;;;;;;10.21;41.77;101391.66;106470;1259;61756;-52
2023/05/06 06:10:50;;;;;;;5.20;2.00;;;;;;;10.25;41.39;101395.69;105544;1259;60368;-52
2023/05/06 06:13:20;;;;;;;4.10;1.40;;;;;;;10.30;39.75;101397.64;104848;1254;67360;-52
2023/05/06 06:15:47;;;;;;;4.70;2.00;;;;;;;10.35;38.95;101397.35;106589;1254;63625;-51
2023/05/06 06:18:15;;;;;;;5.00;1.60;;;;;;;10.38;38.65;101399.64;104794;1254;66439;-53
2023/05/06 06:20:42;;;;;;;4.10;1.60;;;;;;;10.42;38.31;101400.58;104873;1254;60567;-51
2023/05/06 06:23:09;;;;;;;2.80;1.00;;;;;;;10.47;37.55;101396.79;105086;1253;60463;-51
2023/05/06 06:25:36;;;;;;;4.40;1.60;;;;;;;10.51;37.29;101398.98;104710;1259;67165;-52
2023/05/06 06:28:04;;;;;;;14.70;1.90;;;;;;;10.53;36.30;101395.16;104947;1257;62767;-51
2023/05/06 06:30:31;;;;;;;7.30;1.60;;;;;;;10.53;36.21;101401.61;105299;1257;66829;-53
2023/05/06 06:33:00;;;;;;;3.70;1.30;;;;;;;10.57;36.31;101407.35;104756;1259;60933;-52
2023/05/06 06:35:27;;;;;;;4.90;1.70;;;;;;;10.63;35.82;101409.30;106307;1258;60463;-51
2023/05/06 06:51:12;;;;;;;4.90;1.60;;;;;;;10.96;33.62;101408.89;102646;1289;605291;-52
2023/05/06 06:53:40;;;;;;;6.50;1.70;;;;;;;11.44;33.67;101415.73;103879;1273;88242;-53
2023/05/06 06:56:13;;;;;;;3.70;1.10;;;;;;;11.50;33.39;101412.02;104016;1265;59430;-52
2023/05/06 06:58:40;;;;;;;5.80;1.30;;;;;;;11.53;32.92;101413.54;104028;1270;64505;-51
2023/05/06 07:01:07;;;;;;;3.60;1.20;;;;;;;11.56;31.71;101418.84;103948;1269;63843;-52
2023/05/06 07:03:34;;;;;;;4.00;1.20;;;;;;;11.55;30.73;101418.17;104028;1270;65107;-54
2023/05/06 07:06:01;;;;;;;3.90;1.30;;;;;;;11.54;31.37;101421.21;106323;1269;62581;-52
2023/05/06 07:08:28;;;;;;;3.70;1.20;;;;;;;11.54;31.62;101422.46;104132;1269;59375;-50
2023/05/06 07:10:55;;;;;;;6.20;1.60;;;;;;;11.53;32.26;101424.96;104715;1269;65789;-52
2023/05/06 07:13:22;;;;;;;4.30;1.50;;;;;;;11.55;31.28;101426.29;104823;1253;62568;-52
2023/05/06 07:15:49;;;;;;;4.00;1.20;;;;;;;11.52;30.95;101423.08;104700;1260;66384;-51
2023/05/06 07:18:16;;;;;;;3.60;1.10;;;;;;;11.50;30.96;101423.79;104774;1260;59555;-51
2023/05/06 07:20:43;;;;;;;4.60;1.40;;;;;;;11.50;30.74;101419.05;104743;1260;59697;-51
2023/05/06 07:23:10;;;;;;;3.70;1.30;;;;;;;11.49;30.70;101425.08;105033;1257;66648;-51
2023/05/06 07:25:37;;;;;;;6.30;1.60;;;;;;;11.48;31.45;101427.27;104704;1258;62300;-53
2023/05/06 07:28:04;;;;;;;4.80;1.50;;;;;;;11.50;31.82;101422.16;104878;1257;66892;-52
2023/05/06 07:30:31;;;;;;;3.20;1.30;;;;;;;11.55;31.90;101419.74;105118;1254;59648;-53
2023/05/06 07:32:58;;;;;;;4.50;1.80;;;;;;;11.61;31.90;101419.90;104810;1254;59329;-53
2023/05/06 07:35:25;;;;;;;5.30;1.90;;;;;;;11.65;31.44;101418.17;104828;1259;66491;-53
2023/05/06 07:37:52;;;;;;;4.50;1.40;;;;;;;11.68;31.71;101415.33;104887;1257;63656;-52
2023/05/06 07:40:20;;;;;;;4.60;1.70;;;;;;;11.76;32.04;101416.59;106694;1255;66178;-53
2023/05/06 07:42:47;;;;;;;7.30;1.70;;;;;;;11.81;31.14;101418.83;104686;1254;59592;-53
2023/05/06 07:45:14;;;;;;;4.10;1.50;;;;;;;11.85;30.63;101417.02;104868;1257;59641;-52
2023/05/06 07:47:41;;;;;;;5.00;1.50;;;;;;;11.87;30.84;101418.30;104770;1255;65439;-52
2023/05/06 07:50:09;;;;;;;4.60;1.70;;;;;;;11.89;30.75;101418.68;104745;1254;64165;-54
2023/05/06 07:52:36;;;;;;;6.90;1.80;;;;;;;11.91;31.11;101424.90;108736;1254;65172;-52
2023/05/06 07:55:03;;;;;;;5.60;1.70;;;;;;;11.93;31.06;101424.75;104743;1257;59570;-52
2023/05/06 07:57:30;;;;;;;4.30;1.60;;;;;;;11.95;30.91;101423.71;104797;1260;60944;-53
2023/05/06 07:59:57;;;;;;;7.80;2.00;;;;;;;11.98;30.94;101422.13;104988;1260;66667;-52
2023/05/06 08:02:25;;;;;;;4.60;1.70;;;;;;;12.00;30.69;101421.09;104832;1259;63867;-53
2023/05/06 08:04:53;;;;;;;4.00;1.50;;;;;;;12.01;30.77;101425.08;108206;1260;65274;-52
2023/05/06 08:07:20;;;;;;;4.70;1.40;;;;;;;12.04;30.70;101427.70;105587;1255;59669;-53
2023/05/06 08:09:47;;;;;;;6.70;1.70;;;;;;;12.09;30.77;101429.98;107440;1254;59630;-52
2023/05/06 08:12:14;;;;;;;3.90;1.40;;;;;;;12.16;31.13;101430.77;104874;1259;65463;-53
2023/05/06 08:14:41;;;;;;;6.00;1.80;;;;;;;12.22;30.74;101436.25;104830;1255;63574;-52
2023/05/06 08:17:08;;;;;;;4.10;1.50;;;;;;;12.28;30.97;101441.53;104729;1260;66239;-53
2023/05/06 08:19:35;;;;;;;5.50;1.70;;;;;;;12.29;31.00;101442.69;104884;1259;60187;-53
2023/05/06 08:22:02;;;;;;;7.80;1.90;;;;;;;12.28;30.62;101441.00;104767;1258;59627;-54
2023/05/06 08:24:29;;;;;;;6.10;1.70;;;;;;;12.29;30.89;101432.14;104900;1259;69273;-53
2023/05/06 08:26:56;;;;;;;8.30;3.40;;;;;;;12.34;31.17;101432.31;108000;1254;62941;-52
2023/05/06 08:29:23;;;;;;;4.80;1.80;;;;;;;12.40;30.55;101434.50;105606;1258;65176;-53
2023/05/06 08:31:49;;;;;;;4.40;1.60;;;;;;;12.44;29.73;101429.66;104739;1255;59637;-52
2023/05/06 08:34:19;;;;;;;5.90;1.90;;;;;;;12.46;29.75;101427.76;105277;1254;59651;-52
2023/05/06 08:36:47;;;;;;;3.90;1.40;;;;;;;12.47;29.56;101422.38;106285;1260;66344;-53
2023/05/06 08:39:14;;;;;;;4.20;1.40;;;;;;;12.53;30.31;101425.16;105503;1254;62716;-53
2023/05/06 08:41:41;;;;;;;4.20;1.60;;;;;;;12.61;30.48;101425.45;108881;1254;65063;-53
2023/05/06 08:44:08;;;;;;;4.80;1.70;;;;;;;12.69;29.61;101427.02;108800;1254;59351;-54
2023/05/06 08:46:35;;;;;;;5.80;1.70;;;;;;;12.73;29.67;101428.95;107911;1254;59637;-53
2023/05/06 08:49:02;;;;;;;5.80;2.10;;;;;;;12.76;29.32;101428.94;105334;1259;66490;-53
2023/05/06 08:51:30;;;;;;;5.10;1.80;;;;;;;12.78;29.30;101436.19;105366;1259;62756;-53
2023/05/06 08:54:03;;;;;;;3.90;1.70;;;;;;;12.77;28.68;101438.73;105963;1254;66609;-51
2023/05/06 08:56:32;;;;;;;6.30;2.00;;;;;;;12.76;28.89;101437.16;104783;1255;59713;-54
2023/05/06 08:59:00;;;;;;;5.20;1.70;;;;;;;12.80;28.57;101433.92;104769;1254;59723;-54
2023/05/06 09:01:27;;;;;;;9.00;2.10;;;;;;;12.81;28.53;101437.16;104588;1260;66429;-53
2023/05/06 09:03:55;;;;;;;5.90;1.70;;;;;;;12.85;29.27;101441.09;106376;1258;62347;-45
2023/05/06 09:06:23;;;;;;;7.70;1.80;;;;;;;12.93;29.12;101444.24;107363;1254;66625;-45
2023/05/06 09:08:50;;;;;;;4.30;1.60;;;;;;;13.00;29.24;101447.64;105656;1254;59768;-45
2023/05/06 09:11:37;;;;;;;4.60;1.50;;;;;;;13.06;29.00;101445.25;104832;1260;59400;-46
2023/05/06 09:14:11;;;;;;;5.00;1.20;;;;;;;13.14;28.53;101444.35;104943;1261;66286;-45
2023/05/06 09:16:40;;;;;;;5.30;1.50;;;;;;;13.17;28.25;101445.63;105283;1254;62410;-52
2023/05/06 09:19:07;;;;;;;6.40;1.80;;;;;;;13.21;27.75;101450.46;106366;1255;65361;-53
2023/05/06 09:21:35;;;;;;;5.30;1.80;;;;;;;13.25;27.49;101445.97;105366;1254;59813;-53
2023/05/06 09:24:03;;;;;;;5.70;2.00;;;;;;;13.28;27.70;101446.95;105358;1254;62695;-51
2023/05/06 09:26:31;;;;;;;5.40;1.50;;;;;;;13.30;27.13;101443.13;108955;1254;66494;-55
2023/05/06 09:28:58;;;;;;;4.50;1.40;;;;;;;13.31;27.32;101443.05;108979;1254;63760;-55
2023/05/06 09:31:26;;;;;;;8.00;1.80;;;;;;;13.33;27.25;101440.80;108917;1252;66299;-53
2023/05/06 09:33:53;;;;;;;5.50;2.20;;;;;;;13.34;26.91;101433.70;108945;1254;58571;-54
2023/05/06 09:36:21;;;;;;;4.10;1.60;;;;;;;13.36;27.67;101431.59;109037;1253;58009;-54
2023/05/06 09:38:48;;;;;;;5.20;1.80;;;;;;;13.40;26.91;101430.77;108952;1254;66385;-54
2023/05/06 09:41:19;;;;;;;4.70;1.80;;;;;;;13.43;26.68;101430.55;108920;1254;63983;-54
2023/05/06 09:43:48;;;;;;;4.40;1.20;;;;;;;13.49;26.95;101432.75;106895;1255;65015;-54
2023/05/06 09:46:15;;;;;;;3.80;1.50;;;;;;;13.57;27.76;101431.95;105300;1254;59633;-52
2023/05/06 09:48:43;;;;;;;5.20;1.80;;;;;;;13.69;27.07;101431.39;108506;1254;59422;-51
2023/05/06 09:51:10;;;;;;;6.20;1.60;;;;;;;13.74;26.55;101431.04;108467;1254;66944;-53
2023/05/06 09:53:37;;;;;;;4.00;1.30;;;;;;;13.72;25.92;101426.61;105341;1255;63831;-54
2023/05/06 09:56:05;;;;;;;5.00;1.50;;;;;;;13.66;25.68;101422.98;108991;1253;66292;-53
2023/05/06 09:58:32;;;;;;;5.20;1.40;;;;;;;13.66;26.57;101422.14;106541;1259;60006;-50
2023/05/06 10:01:00;;;;;;;4.60;1.60;;;;;;;13.71;26.92;101422.96;106032;1255;59778;-53
2023/05/06 10:03:27;;;;;;;5.60;1.60;;;;;;;13.78;26.99;101424.17;108916;1254;66491;-52
2023/05/06 10:05:56;;;;;;;6.10;1.70;;;;;;;13.84;26.28;101424.26;108980;1254;62367;-51
2023/05/06 10:08:23;;;;;;;7.00;1.60;;;;;;;13.85;24.39;101414.99;108939;1254;65070;-53
2023/05/06 10:10:50;;;;;;;4.30;1.60;;;;;;;13.81;24.48;101419.24;108928;1254;57430;-52
2023/05/06 10:13:18;;;;;;;4.20;1.60;;;;;;;13.74;24.40;101417.59;109033;1254;57871;-52
2023/05/06 10:15:46;;;;;;;4.00;1.50;;;;;;;13.73;24.77;101417.89;106300;1253;66528;-52
2023/05/06 10:18:18;;;;;;;5.30;1.80;;;;;;;13.76;25.29;101422.77;105363;1254;63439;-52
2023/05/06 10:20:46;;;;;;;8.80;1.80;;;;;;;13.84;24.52;101420.58;107058;1254;67463;-53
2023/05/06 10:23:21;;;;;;;7.90;1.70;;;;;;;13.89;24.80;101418.60;105467;1254;60181;-52
2023/05/06 10:25:50;;;;;;;4.60;1.30;;;;;;;13.95;24.51;101415.67;107609;1259;59664;-53
2023/05/06 10:28:17;;;;;;;4.50;1.30;;;;;;;13.98;23.82;101413.83;105343;1259;66478;-52
2023/05/06 10:30:55;;;;;;;3.60;1.40;;;;;;;13.99;23.63;101416.20;105449;1254;63652;-53
2023/05/06 10:33:22;;;;;;;6.40;1.60;;;;;;;14.01;24.79;101417.29;108336;1254;66177;-52
2023/05/06 10:36:02;;;;;;;4.70;1.60;;;;;;;14.05;24.96;101422.41;105324;1254;59684;-52
2023/05/06 10:38:32;;;;;;;4.60;1.70;;;;;;;14.09;24.72;101421.96;105348;1260;60030;-52
2023/05/06 10:40:59;;;;;;;4.30;1.60;;;;;;;14.10;24.61;101415.55;105384;1254;66508;-52
2023/05/06 10:43:28;;;;;;;5.10;1.80;;;;;;;14.09;25.00;101417.92;105330;1254;63653;-53
2023/05/06 10:46:16;;;;;;;5.60;1.90;;;;;;;14.07;24.94;101420.16;108954;1254;65352;-53
2023/05/06 10:49:05;;;;;;;5.00;1.70;;;;;;;14.10;24.19;101416.04;105307;1253;59780;-52
2023/05/06 10:51:33;;;;;;;5.10;1.80;;;;;;;14.18;23.79;101414.06;105674;1260;59583;-53
2023/05/06 10:54:01;;;;;;;8.00;2.10;;;;;;;14.25;24.40;101414.70;108121;1254;65346;-52
2023/05/06 10:56:30;;;;;;;3.40;1.20;;;;;;;14.37;24.82;101411.64;106597;1255;62485;-52
2023/05/06 10:59:25;;;;;;;5.20;1.80;;;;;;;14.51;25.33;101416.92;105795;1258;65140;-52
2023/05/06 11:02:01;;;;;;;6.00;1.80;;;;;;;14.63;24.68;101416.79;105861;1254;60448;-52
2023/05/06 11:04:31;;;;;;;4.90;1.80;;;;;;;14.70;23.95;101410.82;105296;1258;60373;-51
2023/05/06 11:07:14;;;;;;;6.30;2.00;;;;;;;14.72;24.19;101410.47;105473;1259;67688;-53
2023/05/06 11:10:03;;;;;;;4.70;2.10;;;;;;;14.77;24.31;101412.52;106068;1260;63903;-52
2023/05/06 11:12:54;;;;;;;6.00;2.10;;;;;;;14.85;24.42;101418.77;105287;1254;66006;-51
2023/05/06 11:15:37;;;;;;;4.60;1.60;;;;;;;14.88;24.08;101415.02;106730;1259;60454;-51
2023/05/06 11:18:23;;;;;;;5.20;2.10;;;;;;;14.91;24.08;101411.73;105389;1260;60443;-52
2023/05/06 11:21:14;;;;;;;4.90;1.60;;;;;;;14.95;24.39;101416.06;106015;1254;66302;-52
2023/05/06 11:23:41;;;;;;;4.60;2.10;;;;;;;14.97;23.60;101409.19;106948;1254;65084;-51
2023/05/06 11:26:09;;;;;;;5.00;1.60;;;;;;;14.99;23.52;101402.96;105596;1254;66220;-52
2023/05/06 11:28:36;;;;;;;3.80;1.50;;;;;;;15.04;24.07;101403.98;105643;1254;60444;-52
2023/05/06 11:31:03;;;;;;;7.10;1.80;;;;;;;15.12;23.89;101403.89;105284;1260;60418;-52
2023/05/06 11:33:34;;;;;;;5.10;1.70;;;;;;;15.12;23.16;101400.83;105375;1254;67638;-54
2023/05/06 11:36:02;;;;;;;4.60;1.70;;;;;;;15.13;24.48;101397.07;105415;1254;64698;-51
2023/05/06 11:38:39;;;;;;;5.00;1.60;;;;;;;15.18;23.62;101398.39;106497;1254;66213;-51
2023/05/06 11:41:06;;;;;;;5.20;1.60;;;;;;;15.17;23.53;101396.88;105556;1254;60373;-51
2023/05/06 11:43:33;;;;;;;4.40;1.70;;;;;;;15.18;23.99;101385.67;105752;1254;60555;-53